• Join FlightAware (Why Join?)
  • Login
  • US Flag 
01:36PM EDT


 

Airport Tracker/Info


-or-


 

Live Flight TrackerFlight Track Log ✈ SWA1718 ✈ 15-Apr-2013 ✈ KDAL - KAMA

Flight Track Log - Related Links

Times and Time Zones

All times are in EDT time to prevent confusion due to time zone crossing. See the SWA1718 flight status page for this flight to view local times or setup timezone preferences in your user account.

Time Position Orientation Groundspeed Altitude Reporting Facility
EDT Latitude Longitude Course Direction KTS MPH feet Rate Location/Type
03:48PM 32.8167 -96.8333 128° Southeast 156 180 1,900  Level Dallas / Fort Worth TRACON
03:49PM 32.7833 -96.7833 128° Southeast 206 237 4,200 2,400 Climbing Dallas / Fort Worth TRACON
03:50PM 32.7500 -96.7667 157° South 225 259 6,500 2,160 Climbing Dallas / Fort Worth TRACON
03:51PM 32.7000 -96.8167 220° Southwest 246 283 8,600 2,460 Climbing Dallas / Fort Worth TRACON
03:52PM 32.6833 -96.9167 259° West 284 327 11,500 2,760 Climbing Dallas / Fort Worth TRACON
03:54PM 32.7725 -97.0972 300° West 345 397 16,700 2,820 Climbing Fort Worth Center
03:55PM 32.8247 -97.2008 301° West 361 415 19,800 2,760 Climbing Fort Worth Center
03:56PM 32.8731 -97.2972 301° West 372 428 22,300 2,520 Climbing Fort Worth Center
03:57PM 32.9314 -97.4183 300° West 395 455 24,900 2,460 Climbing Fort Worth Center
03:58PM 32.9878 -97.5297 301° West 400 460 27,300 2,040 Climbing Fort Worth Center
03:59PM 33.0461 -97.6439 301° West 395 455 29,000 1,860 Climbing Fort Worth Center
04:00PM 33.1000 -97.7606 299° West 402 463 31,100 2,100 Climbing Fort Worth Center
04:01PM 33.1372 -97.8822 290° West 396 456 33,300 1,980 Climbing Fort Worth Center
04:02PM 33.1764 -98.0042 291° West 391 450 35,100 1,320 Climbing Fort Worth Center
04:03PM 33.2175 -98.1361 290° West 386 444 36,000 600 Climbing Fort Worth Center
04:04PM 33.2564 -98.2606 291° West 391 450 36,300 900 Climbing Fort Worth Center
04:05PM 33.2889 -98.3628 291° West 391 450 37,900 840 Climbing Fort Worth Center
04:06PM 33.3256 -98.4850 290° West 379 436 38,000  Climbing Fort Worth Center
04:07PM 33.3683 -98.6122 292° West 386 444 38,000  Level Fort Worth Center
04:08PM 33.4067 -98.7372 290° West 391 450 38,000  Level Fort Worth Center
04:09PM 33.4428 -98.8597 289° West 391 450 38,000  Level Fort Worth Center
04:10PM 33.4789 -98.9825 289° West 396 456 38,000  Level Fort Worth Center
04:11PM 33.5317 -99.1031 298° West 396 456 38,000  Level Fort Worth Center
04:12PM 33.6011 -99.2067 309° West 400 460 38,000  Level Fort Worth Center
04:13PM 33.6725 -99.3128 309° West 405 466 38,000  Level Fort Worth Center
04:14PM 33.7442 -99.4169 310° West 405 466 38,000  Level Fort Worth Center
04:15PM 33.8153 -99.5208 310° West 405 466 38,000  Level Fort Worth Center
04:16PM 33.8844 -99.6278 308° West 405 466 38,000  Level Fort Worth Center
04:17PM 33.9556 -99.7322 309° West 405 466 38,000  Level Fort Worth Center
04:18PM 34.0267 -99.8419 308° West 405 466 38,000  Level Fort Worth Center
04:19PM 34.0997 -99.9467 310° West 400 460 38,000 -900 Level Fort Worth Center
04:20PM 34.1683 -100.0517 308° West 400 460 36,300 -2,580 Descending Fort Worth Center
04:21PM 34.2875 -100.2322 309° West 404 465 31,200 -2,640 Descending Albuquerque Center
04:22PM 34.3594 -100.3406 309° West 411 473 29,200 -2,040 Descending Albuquerque Center
04:23PM 34.4281 -100.4447 309° West 402 463 27,100 -2,040 Descending Albuquerque Center
04:24PM 34.4928 -100.5439 308° West 384 442 25,100 -1,500 Descending Albuquerque Center
04:25PM 34.5664 -100.6575 308° West 363 418 24,000 -1,860 Descending Albuquerque Center
04:26PM 34.6228 -100.7425 309° West 332 382 21,400 -2,400 Descending Albuquerque Center
04:27PM 34.6825 -100.8372 307° West 346 398 19,200 -2,040 Descending Albuquerque Center
04:28PM 34.7414 -100.9256 309° West 341 392 17,200 -1,800 Descending Albuquerque Center
04:29PM 34.7961 -101.0111 308° West 328 377 15,500 -1,740 Descending Albuquerque Center
04:31PM 34.8542 -101.0900 312° West 317 365 13,700 -1,620 Descending Albuquerque Center
04:32PM 34.9261 -101.1817 314° West 312 359 12,200 -1,500 Descending Albuquerque Center
04:33PM 34.9842 -101.2558 314° West 307 353 10,700 -1,200 Descending Albuquerque Center
04:34PM 35.0386 -101.3275 313° West 296 341 9,800 -1,020 Descending Albuquerque Center
04:35PM 35.0897 -101.3942 313° West 282 325 8,600 -840 Descending Albuquerque Center
04:36PM 35.1386 -101.4569 314° West 270 311 8,100 -720 Descending Albuquerque Center
04:37PM 35.1806 -101.5122 313° West 244 281 7,200 -1,200 Descending Albuquerque Center
04:38PM 35.2342 -101.5803 314° West 235 270 5,700 -1,140 Descending Albuquerque Center
04:39PM 35.2711 -101.6317 311° West 219 252 4,900 -720 Descending Albuquerque Center
04:40PM 35.2558 -101.6703 244° Southwest 167 192 4,300 -720 Descending Albuquerque Center
04:41PM 35.2219 -101.7111 225° Southwest 151 174 3,500 -780 Descending Albuquerque Center
04:43PM 35.2167 -101.7000 219° Southwest  Level FlightAware Approximate